sensor_id;sensor_type;location;lat;lon;timestamp;P1;durP1;ratioP1;P2;durP2;ratioP2
72939;SDS011;61094;51.154;13.570;2023-02-17T00:01:13;16.60;;;5.30;;
72939;SDS011;61094;51.154;13.570;2023-02-17T00:03:17;17.13;;;5.88;;
72939;SDS011;61094;51.154;13.570;2023-02-17T00:05:20;12.75;;;5.57;;
72939;SDS011;61094;51.154;13.570;2023-02-17T00:07:21;12.98;;;5.82;;
72939;SDS011;61094;51.154;13.570;2023-02-17T00:09:23;11.73;;;4.72;;
72939;SDS011;61094;51.154;13.570;2023-02-17T00:11:25;13.27;;;5.30;;
72939;SDS011;61094;51.154;13.570;2023-02-17T00:13:27;13.73;;;5.00;;
72939;SDS011;61094;51.154;13.570;2023-02-17T00:15:29;10.35;;;4.10;;
72939;SDS011;61094;51.154;13.570;2023-02-17T00:17:30;13.88;;;5.20;;
72939;SDS011;61094;51.154;13.570;2023-02-17T00:19:32;13.30;;;5.20;;
72939;SDS011;61094;51.154;13.570;2023-02-17T00:21:35;11.65;;;4.95;;
72939;SDS011;61094;51.154;13.570;2023-02-17T00:23:37;14.15;;;5.20;;
72939;SDS011;61094;51.154;13.570;2023-02-17T00:25:38;15.38;;;5.63;;
72939;SDS011;61094;51.154;13.570;2023-02-17T00:27:40;12.40;;;4.68;;
72939;SDS011;61094;51.154;13.570;2023-02-17T00:29:42;10.43;;;4.72;;
72939;SDS011;61094;51.154;13.570;2023-02-17T00:31:44;16.77;;;6.50;;
72939;SDS011;61094;51.154;13.570;2023-02-17T00:33:45;11.48;;;4.97;;
72939;SDS011;61094;51.154;13.570;2023-02-17T00:35:58;12.38;;;5.32;;
72939;SDS011;61094;51.154;13.570;2023-02-17T00:38:05;13.68;;;5.68;;
72939;SDS011;61094;51.154;13.570;2023-02-17T00:40:07;13.02;;;5.15;;
72939;SDS011;61094;51.154;13.570;2023-02-17T00:42:09;13.07;;;5.22;;
72939;SDS011;61094;51.154;13.570;2023-02-17T00:44:12;14.77;;;5.60;;
72939;SDS011;61094;51.154;13.570;2023-02-17T00:46:17;13.60;;;5.22;;
72939;SDS011;61094;51.154;13.570;2023-02-17T00:48:18;13.82;;;4.80;;
72939;SDS011;61094;51.154;13.570;2023-02-17T00:50:20;13.95;;;5.18;;
72939;SDS011;61094;51.154;13.570;2023-02-17T00:52:22;11.18;;;4.88;;
72939;SDS011;61094;51.154;13.570;2023-02-17T00:54:25;12.93;;;5.63;;
72939;SDS011;61094;51.154;13.570;2023-02-17T00:56:27;11.70;;;4.97;;
72939;SDS011;61094;51.154;13.570;2023-02-17T00:58:28;14.13;;;4.72;;
72939;SDS011;61094;51.154;13.570;2023-02-17T01:00:30;12.70;;;5.43;;
72939;SDS011;61094;51.154;13.570;2023-02-17T01:02:34;14.82;;;5.82;;
72939;SDS011;61094;51.154;13.570;2023-02-17T01:04:35;11.65;;;4.93;;
72939;SDS011;61094;51.154;13.570;2023-02-17T01:06:37;14.25;;;5.70;;
72939;SDS011;61094;51.154;13.570;2023-02-17T01:08:40;13.38;;;5.55;;
72939;SDS011;61094;51.154;13.570;2023-02-17T01:10:44;15.48;;;6.00;;
72939;SDS011;61094;51.154;13.570;2023-02-17T01:12:47;16.75;;;5.32;;
72939;SDS011;61094;51.154;13.570;2023-02-17T01:14:49;18.45;;;6.10;;
72939;SDS011;61094;51.154;13.570;2023-02-17T01:16:50;13.15;;;5.10;;
72939;SDS011;61094;51.154;13.570;2023-02-17T01:18:54;12.05;;;4.57;;
72939;SDS011;61094;51.154;13.570;2023-02-17T01:20:55;12.85;;;5.22;;
72939;SDS011;61094;51.154;13.570;2023-02-17T01:22:57;12.20;;;4.97;;
72939;SDS011;61094;51.154;13.570;2023-02-17T01:24:59;13.15;;;5.60;;
72939;SDS011;61094;51.154;13.570;2023-02-17T01:27:03;14.23;;;5.97;;
72939;SDS011;61094;51.154;13.570;2023-02-17T01:29:05;15.68;;;6.32;;
72939;SDS011;61094;51.154;13.570;2023-02-17T01:31:08;12.25;;;5.25;;
72939;SDS011;61094;51.154;13.570;2023-02-17T01:33:11;12.02;;;4.75;;
72939;SDS011;61094;51.154;13.570;2023-02-17T01:35:13;11.45;;;5.15;;
72939;SDS011;61094;51.154;13.570;2023-02-17T01:37:15;13.65;;;5.18;;
72939;SDS011;61094;51.154;13.570;2023-02-17T01:39:17;14.60;;;5.43;;
72939;SDS011;61094;51.154;13.570;2023-02-17T01:41:20;11.00;;;4.57;;
72939;SDS011;61094;51.154;13.570;2023-02-17T01:43:27;13.75;;;5.65;;
72939;SDS011;61094;51.154;13.570;2023-02-17T01:45:33;13.48;;;4.88;;
72939;SDS011;61094;51.154;13.570;2023-02-17T01:47:37;10.77;;;4.72;;
72939;SDS011;61094;51.154;13.570;2023-02-17T01:49:38;11.60;;;5.13;;
72939;SDS011;61094;51.154;13.570;2023-02-17T01:51:41;12.00;;;4.47;;
72939;SDS011;61094;51.154;13.570;2023-02-17T01:53:47;13.68;;;5.25;;
72939;SDS011;61094;51.154;13.570;2023-02-17T01:55:52;12.82;;;4.90;;
72939;SDS011;61094;51.154;13.570;2023-02-17T01:57:55;11.38;;;4.45;;
72939;SDS011;61094;51.154;13.570;2023-02-17T02:00:03;11.25;;;4.97;;
72939;SDS011;61094;51.154;13.570;2023-02-17T02:02:12;11.30;;;4.35;;
72939;SDS011;61094;51.154;13.570;2023-02-17T02:04:16;13.55;;;4.10;;
72939;SDS011;61094;51.154;13.570;2023-02-17T02:06:22;10.82;;;4.13;;
72939;SDS011;61094;51.154;13.570;2023-02-17T02:08:25;9.90;;;3.83;;
72939;SDS011;61094;51.154;13.570;2023-02-17T02:10:29;12.77;;;4.70;;
72939;SDS011;61094;51.154;13.570;2023-02-17T02:12:32;9.38;;;3.72;;
72939;SDS011;61094;51.154;13.570;2023-02-17T02:14:35;11.35;;;4.70;;
72939;SDS011;61094;51.154;13.570;2023-02-17T02:16:41;11.02;;;4.35;;
72939;SDS011;61094;51.154;13.570;2023-02-17T02:21:00;11.85;;;4.00;;
72939;SDS011;61094;51.154;13.570;2023-02-17T02:23:25;12.13;;;4.38;;
72939;SDS011;61094;51.154;13.570;2023-02-17T02:25:48;14.82;;;4.00;;
72939;SDS011;61094;51.154;13.570;2023-02-17T02:28:20;12.27;;;3.92;;
72939;SDS011;61094;51.154;13.570;2023-02-17T02:30:51;8.48;;;3.13;;
72939;SDS011;61094;51.154;13.570;2023-02-17T02:33:12;10.88;;;4.65;;
72939;SDS011;61094;51.154;13.570;2023-02-17T02:35:20;11.95;;;3.88;;
72939;SDS011;61094;51.154;13.570;2023-02-17T02:37:29;10.80;;;4.15;;
72939;SDS011;61094;51.154;13.570;2023-02-17T02:39:37;9.57;;;3.83;;
72939;SDS011;61094;51.154;13.570;2023-02-17T02:41:42;11.82;;;3.97;;
72939;SDS011;61094;51.154;13.570;2023-02-17T02:43:48;9.88;;;3.88;;
72939;SDS011;61094;51.154;13.570;2023-02-17T02:45:50;10.38;;;3.92;;
72939;SDS011;61094;51.154;13.570;2023-02-17T02:47:53;10.85;;;4.78;;
72939;SDS011;61094;51.154;13.570;2023-02-17T02:49:59;9.20;;;3.75;;
72939;SDS011;61094;51.154;13.570;2023-02-17T02:52:02;10.77;;;4.20;;
72939;SDS011;61094;51.154;13.570;2023-02-17T02:54:15;11.85;;;4.60;;
72939;SDS011;61094;51.154;13.570;2023-02-17T02:56:26;12.95;;;5.00;;
72939;SDS011;61094;51.154;13.570;2023-02-17T02:58:37;9.68;;;3.70;;
72939;SDS011;61094;51.154;13.570;2023-02-17T03:00:53;11.15;;;4.25;;
72939;SDS011;61094;51.154;13.570;2023-02-17T03:03:06;10.05;;;3.95;;
72939;SDS011;61094;51.154;13.570;2023-02-17T03:05:14;12.90;;;4.47;;
72939;SDS011;61094;51.154;13.570;2023-02-17T03:07:20;12.60;;;4.68;;
72939;SDS011;61094;51.154;13.570;2023-02-17T03:09:26;15.10;;;5.00;;
72939;SDS011;61094;51.154;13.570;2023-02-17T03:11:28;10.57;;;4.28;;
72939;SDS011;61094;51.154;13.570;2023-02-17T03:13:35;12.65;;;4.15;;
72939;SDS011;61094;51.154;13.570;2023-02-17T03:15:41;11.77;;;4.45;;
72939;SDS011;61094;51.154;13.570;2023-02-17T03:17:44;9.48;;;3.63;;
72939;SDS011;61094;51.154;13.570;2023-02-17T03:19:46;9.88;;;3.95;;
72939;SDS011;61094;51.154;13.570;2023-02-17T03:21:51;10.70;;;4.35;;
72939;SDS011;61094;51.154;13.570;2023-02-17T03:23:57;12.02;;;4.53;;
72939;SDS011;61094;51.154;13.570;2023-02-17T03:25:58;10.88;;;4.18;;
72939;SDS011;61094;51.154;13.570;2023-02-17T03:28:00;11.35;;;4.30;;
72939;SDS011;61094;51.154;13.570;2023-02-17T03:30:02;10.27;;;4.30;;
72939;SDS011;61094;51.154;13.570;2023-02-17T03:32:04;13.00;;;4.13;;
72939;SDS011;61094;51.154;13.570;2023-02-17T03:34:06;10.07;;;4.15;;
72939;SDS011;61094;51.154;13.570;2023-02-17T03:36:07;10.70;;;4.22;;
72939;SDS011;61094;51.154;13.570;2023-02-17T03:38:10;9.55;;;3.53;;
72939;SDS011;61094;51.154;13.570;2023-02-17T03:40:12;12.05;;;4.57;;
72939;SDS011;61094;51.154;13.570;2023-02-17T03:42:14;7.53;;;3.63;;
72939;SDS011;61094;51.154;13.570;2023-02-17T03:44:15;12.18;;;3.85;;
72939;SDS011;61094;51.154;13.570;2023-02-17T03:46:17;9.25;;;1.85;;
72939;SDS011;61094;51.154;13.570;2023-02-17T03:48:19;9.10;;;3.92;;
72939;SDS011;61094;51.154;13.570;2023-02-17T03:50:21;14.45;;;4.90;;
72939;SDS011;61094;51.154;13.570;2023-02-17T03:52:22;11.90;;;3.42;;
72939;SDS011;61094;51.154;13.570;2023-02-17T03:54:25;9.93;;;4.18;;
72939;SDS011;61094;51.154;13.570;2023-02-17T03:56:27;11.95;;;3.47;;
72939;SDS011;61094;51.154;13.570;2023-02-17T03:58:29;8.52;;;3.50;;
72939;SDS011;61094;51.154;13.570;2023-02-17T04:00:31;13.60;;;4.30;;
72939;SDS011;61094;51.154;13.570;2023-02-17T04:02:32;12.90;;;3.95;;
72939;SDS011;61094;51.154;13.570;2023-02-17T04:04:34;9.65;;;3.92;;
72939;SDS011;61094;51.154;13.570;2023-02-17T04:06:36;10.23;;;4.60;;
72939;SDS011;61094;51.154;13.570;2023-02-17T04:08:38;9.63;;;3.72;;
72939;SDS011;61094;51.154;13.570;2023-02-17T04:10:41;11.23;;;4.25;;
72939;SDS011;61094;51.154;13.570;2023-02-17T04:12:44;10.50;;;4.10;;
72939;SDS011;61094;51.154;13.570;2023-02-17T04:14:45;11.13;;;4.38;;
72939;SDS011;61094;51.154;13.570;2023-02-17T04:16:47;8.73;;;4.22;;
72939;SDS011;61094;51.154;13.570;2023-02-17T04:18:49;9.57;;;3.53;;
72939;SDS011;61094;51.154;13.570;2023-02-17T04:20:50;8.63;;;4.00;;
72939;SDS011;61094;51.154;13.570;2023-02-17T04:22:53;9.60;;;4.05;;
72939;SDS011;61094;51.154;13.570;2023-02-17T04:24:54;11.02;;;4.35;;
72939;SDS011;61094;51.154;13.570;2023-02-17T04:26:57;14.75;;;4.72;;
72939;SDS011;61094;51.154;13.570;2023-02-17T04:28:59;11.82;;;4.18;;
72939;SDS011;61094;51.154;13.570;2023-02-17T04:31:03;12.40;;;4.75;;
72939;SDS011;61094;51.154;13.570;2023-02-17T04:33:05;12.38;;;4.05;;
72939;SDS011;61094;51.154;13.570;2023-02-17T04:35:06;11.27;;;4.22;;
72939;SDS011;61094;51.154;13.570;2023-02-17T04:37:08;10.43;;;3.95;;
72939;SDS011;61094;51.154;13.570;2023-02-17T04:39:10;11.68;;;4.40;;
72939;SDS011;61094;51.154;13.570;2023-02-17T04:41:11;11.77;;;3.95;;
72939;SDS011;61094;51.154;13.570;2023-02-17T04:43:14;11.57;;;4.57;;
72939;SDS011;61094;51.154;13.570;2023-02-17T04:45:16;10.98;;;4.78;;
72939;SDS011;61094;51.154;13.570;2023-02-17T04:47:18;11.70;;;4.97;;
72939;SDS011;61094;51.154;13.570;2023-02-17T04:49:19;11.88;;;4.40;;
72939;SDS011;61094;51.154;13.570;2023-02-17T04:51:21;8.40;;;3.65;;
72939;SDS011;61094;51.154;13.570;2023-02-17T04:53:23;12.30;;;4.25;;
72939;SDS011;61094;51.154;13.570;2023-02-17T04:55:24;14.05;;;4.88;;
72939;SDS011;61094;51.154;13.570;2023-02-17T04:57:26;10.43;;;3.75;;
72939;SDS011;61094;51.154;13.570;2023-02-17T04:59:29;9.85;;;3.90;;
72939;SDS011;61094;51.154;13.570;2023-02-17T05:01:31;9.50;;;4.00;;
72939;SDS011;61094;51.154;13.570;2023-02-17T05:03:32;10.70;;;4.28;;
72939;SDS011;61094;51.154;13.570;2023-02-17T05:05:34;10.63;;;3.38;;
72939;SDS011;61094;51.154;13.570;2023-02-17T05:07:36;11.68;;;3.92;;
72939;SDS011;61094;51.154;13.570;2023-02-17T05:09:37;10.50;;;4.05;;
72939;SDS011;61094;51.154;13.570;2023-02-17T05:11:40;10.18;;;4.07;;
72939;SDS011;61094;51.154;13.570;2023-02-17T05:13:41;17.65;;;4.03;;
72939;SDS011;61094;51.154;13.570;2023-02-17T05:15:44;13.38;;;5.05;;
72939;SDS011;61094;51.154;13.570;2023-02-17T05:17:46;10.63;;;4.45;;
72939;SDS011;61094;51.154;13.570;2023-02-17T05:19:48;8.55;;;3.97;;
72939;SDS011;61094;51.154;13.570;2023-02-17T05:21:49;10.50;;;4.28;;
72939;SDS011;61094;51.154;13.570;2023-02-17T05:23:51;9.20;;;3.65;;
72939;SDS011;61094;51.154;13.570;2023-02-17T05:25:53;10.88;;;4.45;;
72939;SDS011;61094;51.154;13.570;2023-02-17T05:27:54;14.32;;;4.70;;
72939;SDS011;61094;51.154;13.570;2023-02-17T05:29:56;13.43;;;3.90;;
72939;SDS011;61094;51.154;13.570;2023-02-17T05:31:59;11.18;;;4.38;;
72939;SDS011;61094;51.154;13.570;2023-02-17T05:34:00;11.63;;;4.30;;
72939;SDS011;61094;51.154;13.570;2023-02-17T05:36:03;13.68;;;3.97;;
72939;SDS011;61094;51.154;13.570;2023-02-17T05:38:06;8.98;;;3.97;;
72939;SDS011;61094;51.154;13.570;2023-02-17T05:40:08;11.32;;;4.45;;
72939;SDS011;61094;51.154;13.570;2023-02-17T05:42:10;8.30;;;3.75;;
72939;SDS011;61094;51.154;13.570;2023-02-17T05:44:12;10.55;;;3.97;;
72939;SDS011;61094;51.154;13.570;2023-02-17T05:46:14;10.88;;;4.20;;
72939;SDS011;61094;51.154;13.570;2023-02-17T05:48:17;9.43;;;4.50;;
72939;SDS011;61094;51.154;13.570;2023-02-17T05:50:19;13.07;;;5.10;;
72939;SDS011;61094;51.154;13.570;2023-02-17T05:52:22;11.35;;;4.45;;
72939;SDS011;61094;51.154;13.570;2023-02-17T05:54:24;11.50;;;4.82;;
72939;SDS011;61094;51.154;13.570;2023-02-17T05:56:25;12.10;;;4.63;;
72939;SDS011;61094;51.154;13.570;2023-02-17T05:58:27;11.32;;;4.40;;
72939;SDS011;61094;51.154;13.570;2023-02-17T06:00:29;10.40;;;4.28;;
72939;SDS011;61094;51.154;13.570;2023-02-17T06:02:31;11.75;;;4.28;;
72939;SDS011;61094;51.154;13.570;2023-02-17T06:04:34;11.77;;;4.88;;
72939;SDS011;61094;51.154;13.570;2023-02-17T06:06:36;9.80;;;4.20;;
72939;SDS011;61094;51.154;13.570;2023-02-17T06:08:38;10.13;;;4.00;;
72939;SDS011;61094;51.154;13.570;2023-02-17T06:10:40;11.52;;;4.20;;
72939;SDS011;61094;51.154;13.570;2023-02-17T06:12:42;10.07;;;4.13;;
72939;SDS011;61094;51.154;13.570;2023-02-17T06:14:44;10.10;;;4.50;;
72939;SDS011;61094;51.154;13.570;2023-02-17T06:16:46;10.25;;;4.00;;
72939;SDS011;61094;51.154;13.570;2023-02-17T06:18:47;8.85;;;3.70;;
72939;SDS011;61094;51.154;13.570;2023-02-17T06:20:53;17.42;;;7.05;;
72939;SDS011;61094;51.154;13.570;2023-02-17T06:22:54;10.32;;;4.05;;
72939;SDS011;61094;51.154;13.570;2023-02-17T06:24:56;10.07;;;3.67;;
72939;SDS011;61094;51.154;13.570;2023-02-17T06:26:58;8.27;;;3.05;;
72939;SDS011;61094;51.154;13.570;2023-02-17T06:29:00;9.00;;;3.33;;
72939;SDS011;61094;51.154;13.570;2023-02-17T06:31:02;8.95;;;3.97;;
72939;SDS011;61094;51.154;13.570;2023-02-17T06:33:04;14.50;;;5.05;;
72939;SDS011;61094;51.154;13.570;2023-02-17T06:35:06;10.50;;;4.28;;
72939;SDS011;61094;51.154;13.570;2023-02-17T06:37:09;11.55;;;3.50;;
72939;SDS011;61094;51.154;13.570;2023-02-17T06:39:10;9.57;;;3.95;;
72939;SDS011;61094;51.154;13.570;2023-02-17T06:41:12;10.77;;;4.47;;
72939;SDS011;61094;51.154;13.570;2023-02-17T06:43:14;10.65;;;3.08;;
72939;SDS011;61094;51.154;13.570;2023-02-17T06:45:15;11.75;;;4.35;;
72939;SDS011;61094;51.154;13.570;2023-02-17T06:47:17;10.07;;;3.33;;
72939;SDS011;61094;51.154;13.570;2023-02-17T06:49:19;10.60;;;3.72;;
72939;SDS011;61094;51.154;13.570;2023-02-17T06:51:20;11.32;;;4.43;;
72939;SDS011;61094;51.154;13.570;2023-02-17T06:53:23;7.82;;;3.25;;
72939;SDS011;61094;51.154;13.570;2023-02-17T06:55:25;8.18;;;3.58;;
72939;SDS011;61094;51.154;13.570;2023-02-17T06:57:27;11.48;;;4.03;;
72939;SDS011;61094;51.154;13.570;2023-02-17T06:59:30;11.30;;;4.47;;
72939;SDS011;61094;51.154;13.570;2023-02-17T07:01:31;9.48;;;3.85;;
72939;SDS011;61094;51.154;13.570;2023-02-17T07:03:33;12.18;;;3.75;;
72939;SDS011;61094;51.154;13.570;2023-02-17T07:05:35;8.00;;;3.00;;
72939;SDS011;61094;51.154;13.570;2023-02-17T07:07:39;7.93;;;3.53;;
72939;SDS011;61094;51.154;13.570;2023-02-17T07:09:41;8.75;;;2.90;;
72939;SDS011;61094;51.154;13.570;2023-02-17T07:11:43;5.80;;;2.70;;
72939;SDS011;61094;51.154;13.570;2023-02-17T07:13:45;10.30;;;3.15;;
72939;SDS011;61094;51.154;13.570;2023-02-17T07:15:47;8.15;;;3.13;;
72939;SDS011;61094;51.154;13.570;2023-02-17T07:17:48;8.88;;;3.45;;
72939;SDS011;61094;51.154;13.570;2023-02-17T07:19:50;8.52;;;3.50;;
72939;SDS011;61094;51.154;13.570;2023-02-17T07:21:52;8.93;;;3.83;;
72939;SDS011;61094;51.154;13.570;2023-02-17T07:23:53;9.02;;;3.13;;
72939;SDS011;61094;51.154;13.570;2023-02-17T07:25:59;9.57;;;3.85;;
72939;SDS011;61094;51.154;13.570;2023-02-17T07:28:02;6.97;;;2.70;;
72939;SDS011;61094;51.154;13.570;2023-02-17T07:30:04;8.88;;;3.20;;
72939;SDS011;61094;51.154;13.570;2023-02-17T07:32:07;9.85;;;3.80;;
72939;SDS011;61094;51.154;13.570;2023-02-17T07:34:08;6.88;;;2.55;;
72939;SDS011;61094;51.154;13.570;2023-02-17T07:36:11;10.50;;;3.83;;
72939;SDS011;61094;51.154;13.570;2023-02-17T07:38:14;9.30;;;3.08;;
72939;SDS011;61094;51.154;13.570;2023-02-17T07:40:15;7.45;;;2.65;;
72939;SDS011;61094;51.154;13.570;2023-02-17T07:42:18;8.77;;;3.30;;
72939;SDS011;61094;51.154;13.570;2023-02-17T07:44:20;9.80;;;3.88;;
72939;SDS011;61094;51.154;13.570;2023-02-17T07:46:23;8.18;;;3.80;;
72939;SDS011;61094;51.154;13.570;2023-02-17T07:48:25;8.27;;;3.33;;
72939;SDS011;61094;51.154;13.570;2023-02-17T07:50:27;11.75;;;3.50;;
72939;SDS011;61094;51.154;13.570;2023-02-17T07:52:28;7.47;;;3.15;;
72939;SDS011;61094;51.154;13.570;2023-02-17T07:54:30;8.10;;;3.13;;
72939;SDS011;61094;51.154;13.570;2023-02-17T07:56:31;9.25;;;3.20;;
72939;SDS011;61094;51.154;13.570;2023-02-17T07:58:35;9.70;;;3.35;;
72939;SDS011;61094;51.154;13.570;2023-02-17T08:00:38;10.38;;;3.65;;
72939;SDS011;61094;51.154;13.570;2023-02-17T08:02:40;10.00;;;3.75;;
72939;SDS011;61094;51.154;13.570;2023-02-17T08:04:42;8.52;;;3.25;;
72939;SDS011;61094;51.154;13.570;2023-02-17T08:06:43;9.07;;;3.83;;
72939;SDS011;61094;51.154;13.570;2023-02-17T08:08:45;10.25;;;3.80;;
72939;SDS011;61094;51.154;13.570;2023-02-17T08:11:04;8.27;;;3.40;;
72939;SDS011;61094;51.154;13.570;2023-02-17T08:13:24;7.97;;;3.40;;
72939;SDS011;61094;51.154;13.570;2023-02-17T08:15:30;8.55;;;3.30;;
72939;SDS011;61094;51.154;13.570;2023-02-17T08:17:33;9.48;;;3.28;;
72939;SDS011;61094;51.154;13.570;2023-02-17T08:19:34;9.80;;;3.60;;
72939;SDS011;61094;51.154;13.570;2023-02-17T08:21:36;8.98;;;3.38;;
72939;SDS011;61094;51.154;13.570;2023-02-17T08:23:38;7.18;;;2.97;;
72939;SDS011;61094;51.154;13.570;2023-02-17T08:25:39;9.65;;;3.38;;
72939;SDS011;61094;51.154;13.570;2023-02-17T08:27:41;8.30;;;3.15;;
72939;SDS011;61094;51.154;13.570;2023-02-17T08:29:43;7.80;;;2.95;;
72939;SDS011;61094;51.154;13.570;2023-02-17T08:31:49;7.05;;;2.88;;
72939;SDS011;61094;51.154;13.570;2023-02-17T08:33:52;8.45;;;3.40;;
72939;SDS011;61094;51.154;13.570;2023-02-17T08:35:55;10.95;;;3.42;;
72939;SDS011;61094;51.154;13.570;2023-02-17T08:37:56;7.22;;;2.67;;
72939;SDS011;61094;51.154;13.570;2023-02-17T08:39:58;8.85;;;3.45;;
72939;SDS011;61094;51.154;13.570;2023-02-17T08:42:00;9.55;;;3.55;;
72939;SDS011;61094;51.154;13.570;2023-02-17T08:44:03;8.93;;;2.80;;
72939;SDS011;61094;51.154;13.570;2023-02-17T08:46:08;7.97;;;2.55;;
72939;SDS011;61094;51.154;13.570;2023-02-17T08:48:12;9.25;;;3.53;;
72939;SDS011;61094;51.154;13.570;2023-02-17T08:50:14;9.60;;;3.03;;
72939;SDS011;61094;51.154;13.570;2023-02-17T08:52:16;10.10;;;3.53;;
72939;SDS011;61094;51.154;13.570;2023-02-17T08:54:17;6.80;;;3.00;;
72939;SDS011;61094;51.154;13.570;2023-02-17T08:56:19;6.35;;;2.47;;
72939;SDS011;61094;51.154;13.570;2023-02-17T08:58:21;10.30;;;3.88;;
72939;SDS011;61094;51.154;13.570;2023-02-17T09:00:23;8.23;;;2.42;;
72939;SDS011;61094;51.154;13.570;2023-02-17T09:02:24;8.50;;;3.13;;
72939;SDS011;61094;51.154;13.570;2023-02-17T09:04:27;9.73;;;3.60;;
72939;SDS011;61094;51.154;13.570;2023-02-17T09:06:33;10.45;;;3.33;;
72939;SDS011;61094;51.154;13.570;2023-02-17T09:08:36;9.45;;;3.63;;
72939;SDS011;61094;51.154;13.570;2023-02-17T09:10:40;7.82;;;2.92;;
72939;SDS011;61094;51.154;13.570;2023-02-17T09:12:41;8.88;;;3.22;;
72939;SDS011;61094;51.154;13.570;2023-02-17T09:14:43;9.15;;;3.45;;
72939;SDS011;61094;51.154;13.570;2023-02-17T09:16:45;7.60;;;3.10;;
72939;SDS011;61094;51.154;13.570;2023-02-17T09:18:46;7.68;;;2.78;;
72939;SDS011;61094;51.154;13.570;2023-02-17T09:20:49;8.73;;;3.20;;
72939;SDS011;61094;51.154;13.570;2023-02-17T09:22:51;7.50;;;2.90;;
72939;SDS011;61094;51.154;13.570;2023-02-17T09:24:53;8.13;;;2.75;;
72939;SDS011;61094;51.154;13.570;2023-02-17T09:26:54;10.00;;;2.90;;
72939;SDS011;61094;51.154;13.570;2023-02-17T09:28:56;7.97;;;2.75;;
72939;SDS011;61094;51.154;13.570;2023-02-17T09:30:58;6.45;;;2.55;;
72939;SDS011;61094;51.154;13.570;2023-02-17T09:33:07;6.75;;;2.30;;
72939;SDS011;61094;51.154;13.570;2023-02-17T09:35:10;6.53;;;2.42;;
72939;SDS011;61094;51.154;13.570;2023-02-17T09:37:13;7.05;;;2.75;;
72939;SDS011;61094;51.154;13.570;2023-02-17T09:39:16;5.78;;;2.17;;
72939;SDS011;61094;51.154;13.570;2023-02-17T09:41:20;6.50;;;2.25;;
72939;SDS011;61094;51.154;13.570;2023-02-17T09:43:24;6.07;;;2.40;;
72939;SDS011;61094;51.154;13.570;2023-02-17T09:45:30;8.32;;;2.63;;
72939;SDS011;61094;51.154;13.570;2023-02-17T09:47:36;5.65;;;2.25;;
72939;SDS011;61094;51.154;13.570;2023-02-17T09:49:41;5.90;;;1.80;;
72939;SDS011;61094;51.154;13.570;2023-02-17T09:51:46;6.28;;;2.42;;
72939;SDS011;61094;51.154;13.570;2023-02-17T09:53:59;4.85;;;1.73;;
72939;SDS011;61094;51.154;13.570;2023-02-17T09:56:07;5.53;;;1.63;;
72939;SDS011;61094;51.154;13.570;2023-02-17T09:58:11;6.10;;;2.17;;
72939;SDS011;61094;51.154;13.570;2023-02-17T10:00:19;5.00;;;1.92;;
72939;SDS011;61094;51.154;13.570;2023-02-17T10:02:24;5.43;;;1.80;;
72939;SDS011;61094;51.154;13.570;2023-02-17T10:04:31;4.95;;;1.80;;
72939;SDS011;61094;51.154;13.570;2023-02-17T10:06:38;4.40;;;1.70;;
72939;SDS011;61094;51.154;13.570;2023-02-17T10:08:42;6.22;;;2.40;;
72939;SDS011;61094;51.154;13.570;2023-02-17T10:10:51;5.18;;;1.80;;
72939;SDS011;61094;51.154;13.570;2023-02-17T10:12:58;5.95;;;2.42;;
72939;SDS011;61094;51.154;13.570;2023-02-17T10:15:04;5.13;;;1.88;;
72939;SDS011;61094;51.154;13.570;2023-02-17T10:17:12;5.85;;;1.58;;
72939;SDS011;61094;51.154;13.570;2023-02-17T10:19:18;4.80;;;1.48;;
72939;SDS011;61094;51.154;13.570;2023-02-17T10:21:26;5.75;;;2.22;;
72939;SDS011;61094;51.154;13.570;2023-02-17T10:23:31;4.97;;;1.90;;
72939;SDS011;61094;51.154;13.570;2023-02-17T10:25:38;5.38;;;2.00;;
72939;SDS011;61094;51.154;13.570;2023-02-17T10:27:58;5.28;;;2.20;;
72939;SDS011;61094;51.154;13.570;2023-02-17T10:30:17;6.60;;;1.85;;
72939;SDS011;61094;51.154;13.570;2023-02-17T10:32:26;5.75;;;1.95;;
72939;SDS011;61094;51.154;13.570;2023-02-17T10:34:33;7.38;;;2.22;;
72939;SDS011;61094;51.154;13.570;2023-02-17T10:36:39;5.13;;;1.85;;
72939;SDS011;61094;51.154;13.570;2023-02-17T10:38:51;5.95;;;1.95;;
72939;SDS011;61094;51.154;13.570;2023-02-17T10:40:58;5.60;;;2.00;;
72939;SDS011;61094;51.154;13.570;2023-02-17T10:43:03;4.55;;;1.73;;
72939;SDS011;61094;51.154;13.570;2023-02-17T10:45:10;6.78;;;2.70;;
72939;SDS011;61094;51.154;13.570;2023-02-17T10:47:15;7.55;;;2.10;;
72939;SDS011;61094;51.154;13.570;2023-02-17T10:49:20;5.50;;;2.10;;
72939;SDS011;61094;51.154;13.570;2023-02-17T10:51:28;6.10;;;2.30;;
72939;SDS011;61094;51.154;13.570;2023-02-17T10:53:32;4.43;;;1.83;;
72939;SDS011;61094;51.154;13.570;2023-02-17T10:55:35;7.00;;;2.10;;
72939;SDS011;61094;51.154;13.570;2023-02-17T10:57:39;7.10;;;2.85;;
72939;SDS011;61094;51.154;13.570;2023-02-17T10:59:43;5.10;;;1.98;;
72939;SDS011;61094;51.154;13.570;2023-02-17T11:01:46;4.53;;;1.63;;
72939;SDS011;61094;51.154;13.570;2023-02-17T11:03:57;5.50;;;1.95;;
72939;SDS011;61094;51.154;13.570;2023-02-17T11:06:01;6.22;;;2.35;;
72939;SDS011;61094;51.154;13.570;2023-02-17T11:08:06;5.50;;;1.92;;
72939;SDS011;61094;51.154;13.570;2023-02-17T11:10:30;6.05;;;1.80;;
72939;SDS011;61094;51.154;13.570;2023-02-17T11:12:37;8.80;;;1.92;;
72939;SDS011;61094;51.154;13.570;2023-02-17T11:14:42;7.65;;;2.50;;
72939;SDS011;61094;51.154;13.570;2023-02-17T11:16:48;5.47;;;1.77;;
72939;SDS011;61094;51.154;13.570;2023-02-17T11:18:52;5.03;;;1.83;;
72939;SDS011;61094;51.154;13.570;2023-02-17T11:20:59;6.57;;;2.63;;
72939;SDS011;61094;51.154;13.570;2023-02-17T11:23:07;5.28;;;1.70;;
72939;SDS011;61094;51.154;13.570;2023-02-17T11:25:23;5.47;;;1.98;;
72939;SDS011;61094;51.154;13.570;2023-02-17T11:29:30;6.13;;;2.20;;
72939;SDS011;61094;51.154;13.570;2023-02-17T11:31:33;4.95;;;1.98;;
72939;SDS011;61094;51.154;13.570;2023-02-17T11:33:36;5.43;;;1.92;;
72939;SDS011;61094;51.154;13.570;2023-02-17T11:35:44;3.78;;;1.20;;
72939;SDS011;61094;51.154;13.570;2023-02-17T11:37:51;7.22;;;2.42;;
72939;SDS011;61094;51.154;13.570;2023-02-17T11:40:00;3.63;;;1.27;;
72939;SDS011;61094;51.154;13.570;2023-02-17T11:42:23;5.00;;;1.83;;
72939;SDS011;61094;51.154;13.570;2023-02-17T11:44:27;5.75;;;2.10;;
72939;SDS011;61094;51.154;13.570;2023-02-17T11:46:31;4.43;;;1.65;;
72939;SDS011;61094;51.154;13.570;2023-02-17T11:48:42;3.35;;;1.40;;
72939;SDS011;61094;51.154;13.570;2023-02-17T11:50:57;4.50;;;1.73;;
72939;SDS011;61094;51.154;13.570;2023-02-17T11:53:06;7.70;;;2.17;;
72939;SDS011;61094;51.154;13.570;2023-02-17T11:55:19;3.55;;;1.30;;
72939;SDS011;61094;51.154;13.570;2023-02-17T11:57:30;4.60;;;1.60;;
72939;SDS011;61094;51.154;13.570;2023-02-17T11:59:43;6.45;;;1.75;;
72939;SDS011;61094;51.154;13.570;2023-02-17T12:02:10;4.35;;;1.58;;
72939;SDS011;61094;51.154;13.570;2023-02-17T12:04:22;4.43;;;1.60;;
72939;SDS011;61094;51.154;13.570;2023-02-17T12:06:31;6.75;;;1.75;;
72939;SDS011;61094;51.154;13.570;2023-02-17T12:08:50;8.60;;;2.08;;
72939;SDS011;61094;51.154;13.570;2023-02-17T12:11:04;4.32;;;1.33;;
72939;SDS011;61094;51.154;13.570;2023-02-17T12:13:15;8.65;;;2.13;;
72939;SDS011;61094;51.154;13.570;2023-02-17T12:15:30;4.95;;;1.83;;
72939;SDS011;61094;51.154;13.570;2023-02-17T12:17:43;7.90;;;2.55;;